Time;durP1;ratioP1;P1;durP2;ratioP2;P2;SDS_P1;SDS_P2;PMS_P1;PMS_P2;Temp;Humidity;BMP_temperature;BMP_pressure;BME280_temperature;BME280_humidity;BME280_pressure;Samples;Min_cycle;Max_cycle;Signal;HPM_P1;HPM_P2
2022/10/21 00:02:44;;;;;;;;;;;;;;;4.28;100.00;101275.69;5552049;32;35024;-66
2022/10/21 00:05:50;;;;;;;;;;;;;;;4.21;100.00;101269.19;5551872;32;34923;-66
2022/10/21 00:08:55;;;;;;;;;;;;;;;4.21;100.00;101272.62;5551973;32;34821;-66
2022/10/21 00:11:59;;;;;;;;;;;;;;;4.14;100.00;101266.12;5552005;32;34228;-66
2022/10/21 00:15:04;;;;;;;;;;;;;;;4.09;100.00;101259.50;5551964;32;34826;-67
2022/10/21 00:18:10;;;;;;;;;;;;;;;4.06;100.00;101262.34;5552104;32;34065;-67
2022/10/21 00:21:19;;;;;;;;;;;;;;;4.03;100.00;101265.16;5538123;32;35588;-66
2022/10/21 00:24:27;;;;;;;;;;;;;;;4.01;100.00;101264.44;5537950;32;34220;-67
2022/10/21 00:27:33;;;;;;;;;;;;;;;4.06;100.00;101257.09;5551803;32;34328;-66
2022/10/21 00:30:43;;;;;;;;;;;;;;;4.00;100.00;101258.34;5538142;32;35176;-67
2022/10/21 00:33:51;;;;;;;;;;;;;;;3.98;100.00;101251.50;5551734;32;34425;-66
2022/10/21 00:36:59;;;;;;;;;;;;;;;4.04;100.00;101246.69;5551599;32;34512;-66
2022/10/21 00:40:05;;;;;;;;;;;;;;;4.02;100.00;101245.12;5551601;32;35013;-66
2022/10/21 00:43:13;;;;;;;;;;;;;;;3.93;100.00;101242.16;5551529;32;34419;-66
2022/10/21 00:46:26;;;;;;;;;;;;;;;3.86;100.00;101240.91;5551508;32;34469;-67
2022/10/21 00:49:34;;;;;;;;;;;;;;;3.82;100.00;101233.34;5551434;32;34851;-66
2022/10/21 00:52:41;;;;;;;;;;;;;;;3.79;100.00;101226.50;5551558;32;34353;-66
2022/10/21 00:55:51;;;;;;;;;;;;;;;3.76;100.00;101228.50;5551493;32;34810;-66
2022/10/21 00:58:59;;;;;;;;;;;;;;;3.75;100.00;101222.44;5551589;32;34281;-66
2022/10/21 01:02:07;;;;;;;;;;;;;;;3.88;100.00;101225.88;5551379;32;35226;-66
2022/10/21 01:05:15;;;;;;;;;;;;;;;3.85;100.00;101223.47;5538601;32;34224;-67
2022/10/21 01:08:21;;;;;;;;;;;;;;;3.77;100.00;101224.97;5551476;32;34047;-66
2022/10/21 01:11:30;;;;;;;;;;;;;;;3.78;100.00;101222.22;5551542;32;34238;-66
2022/10/21 01:14:52;;;;;;;;;;;;;;;3.88;100.00;101214.53;5538171;32;34696;-66
2022/10/21 01:18:08;;;;;;;;;;;;;;;3.78;100.00;101221.34;5551594;32;34425;-66
2022/10/21 01:21:19;;;;;;;;;;;;;;;3.75;100.00;101211.09;5538323;32;34217;-67
2022/10/21 01:24:27;;;;;;;;;;;;;;;3.72;100.00;101214.78;5551332;32;34218;-66
2022/10/21 01:27:40;;;;;;;;;;;;;;;3.68;100.00;101212.47;5537523;32;34260;-67
2022/10/21 01:30:53;;;;;;;;;;;;;;;3.73;100.00;101216.44;5538006;32;34928;-66
2022/10/21 01:34:01;;;;;;;;;;;;;;;3.71;100.00;101220.13;5551118;32;34929;-66
2022/10/21 01:37:11;;;;;;;;;;;;;;;3.79;100.00;101212.56;5551106;32;34960;-66
2022/10/21 01:40:25;;;;;;;;;;;;;;;3.72;100.00;101201.66;5551102;32;34232;-66
2022/10/21 01:43:36;;;;;;;;;;;;;;;3.84;100.00;101202.59;5551502;32;34351;-66
2022/10/21 01:46:52;;;;;;;;;;;;;;;3.82;100.00;101199.25;5550974;32;34320;-67
2022/10/21 01:50:01;;;;;;;;;;;;;;;3.88;100.00;101185.66;5550926;32;34944;-66
2022/10/21 01:53:08;;;;;;;;;;;;;;;3.84;100.00;101182.44;5550388;32;34842;-67
2022/10/21 01:56:14;;;;;;;;;;;;;;;3.72;100.00;101188.53;5550937;32;34895;-67
2022/10/21 01:59:23;;;;;;;;;;;;;;;3.74;100.00;101165.63;5550946;32;34410;-67
2022/10/21 02:02:36;;;;;;;;;;;;;;;3.70;100.00;101181.69;5550906;32;34942;-67
2022/10/21 02:05:45;;;;;;;;;;;;;;;3.66;100.00;101174.97;5550788;32;34659;-67
2022/10/21 02:08:51;;;;;;;;;;;;;;;3.62;100.00;101184.00;5550935;32;34179;-67
2022/10/21 02:11:59;;;;;;;;;;;;;;;3.58;100.00;101185.16;5550722;32;34879;-67
2022/10/21 02:15:07;;;;;;;;;;;;;;;3.52;100.00;101175.06;5550828;32;34239;-67
2022/10/21 02:18:20;;;;;;;;;;;;;;;3.67;100.00;101181.91;5550706;32;34311;-67
2022/10/21 02:21:29;;;;;;;;;;;;;;;3.64;100.00;101184.72;5550779;32;34662;-67
2022/10/21 02:24:42;;;;;;;;;;;;;;;3.57;100.00;101197.44;5537741;32;34367;-67
2022/10/21 02:27:48;;;;;;;;;;;;;;;3.49;100.00;101199.72;5550594;32;34114;-68
2022/10/21 02:31:03;;;;;;;;;;;;;;;3.44;100.00;101212.28;5550465;32;34187;-67
2022/10/21 02:34:09;;;;;;;;;;;;;;;3.43;100.00;101205.38;5537267;32;34175;-67
2022/10/21 02:37:21;;;;;;;;;;;;;;;3.60;100.00;101199.00;5550524;32;34953;-67
2022/10/21 02:40:44;;;;;;;;;;;;;;;3.75;100.00;101195.34;5550465;32;34230;-67
2022/10/21 02:43:56;;;;;;;;;;;;;;;3.74;100.00;101202.38;5550386;32;34629;-67
2022/10/21 02:47:03;;;;;;;;;;;;;;;3.64;100.00;101197.84;5550357;32;34821;-67
2022/10/21 02:50:13;;;;;;;;;;;;;;;3.50;100.00;101202.25;5550145;32;34416;-67
2022/10/21 02:53:19;;;;;;;;;;;;;;;3.42;100.00;101209.78;5550119;32;34721;-67
2022/10/21 02:56:27;;;;;;;;;;;;;;;3.49;100.00;101202.34;5550170;32;34145;-67
2022/10/21 02:59:38;;;;;;;;;;;;;;;3.52;100.00;101193.44;5536374;32;34094;-67
2022/10/21 03:02:46;;;;;;;;;;;;;;;3.48;100.00;101190.19;5550190;32;34245;-67
2022/10/21 03:05:51;;;;;;;;;;;;;;;3.41;100.00;101184.50;5550900;32;34317;-67
2022/10/21 03:09:01;;;;;;;;;;;;;;;3.41;100.00;101183.66;5539253;32;34669;-67
2022/10/21 03:12:06;;;;;;;;;;;;;;;3.29;100.00;101187.91;5552342;32;34679;-67
2022/10/21 03:15:14;;;;;;;;;;;;;;;3.26;100.00;101192.53;5538473;32;32744;-67
2022/10/21 03:18:22;;;;;;;;;;;;;;;3.41;100.00;101192.38;5552175;32;34612;-67
2022/10/21 03:21:30;;;;;;;;;;;;;;;3.48;100.00;101196.28;5538308;32;34184;-66
2022/10/21 03:24:38;;;;;;;;;;;;;;;3.35;100.00;101200.63;5552193;32;34314;-68
2022/10/21 03:27:48;;;;;;;;;;;;;;;3.34;100.00;101200.75;5552047;32;34520;-68
2022/10/21 03:30:56;;;;;;;;;;;;;;;3.38;100.00;101204.84;5538860;32;34355;-68
2022/10/21 03:34:02;;;;;;;;;;;;;;;3.28;100.00;101193.28;5552081;32;34177;-67
2022/10/21 03:37:09;;;;;;;;;;;;;;;3.20;100.00;101192.94;5552458;32;34810;-68
2022/10/21 03:40:14;;;;;;;;;;;;;;;3.14;100.00;101180.25;5538652;32;34945;-67
2022/10/21 03:43:19;;;;;;;;;;;;;;;3.13;100.00;101165.44;5538530;32;33131;-67
2022/10/21 03:46:26;;;;;;;;;;;;;;;3.18;100.00;101179.09;5552044;32;34781;-67
2022/10/21 03:49:32;;;;;;;;;;;;;;;3.06;100.00;101172.87;5551900;32;34669;-67
2022/10/21 03:52:41;;;;;;;;;;;;;;;2.99;100.00;101174.22;5538935;32;34978;-67
2022/10/21 03:55:53;;;;;;;;;;;;;;;2.97;100.00;101182.19;5551953;32;34290;-67
2022/10/21 03:59:01;;;;;;;;;;;;;;;2.97;100.00;101179.56;5552353;32;34249;-67
2022/10/21 04:02:09;;;;;;;;;;;;;;;2.95;100.00;101164.88;5538274;32;34148;-67
2022/10/21 04:05:17;;;;;;;;;;;;;;;3.01;100.00;101167.09;5538600;32;34810;-67
2022/10/21 04:08:21;;;;;;;;;;;;;;;3.16;100.00;101162.63;5551954;32;34348;-68
2022/10/21 04:11:28;;;;;;;;;;;;;;;3.16;100.00;101160.84;5537405;32;34735;-67
2022/10/21 04:14:35;;;;;;;;;;;;;;;3.09;100.00;101161.34;5551844;32;34610;-68
2022/10/21 04:17:46;;;;;;;;;;;;;;;2.95;100.00;101152.59;5551612;32;34966;-67
2022/10/21 04:20:54;;;;;;;;;;;;;;;2.87;100.00;101151.41;5537620;32;34529;-67
2022/10/21 04:24:02;;;;;;;;;;;;;;;2.81;100.00;101151.84;5538050;32;34631;-67
2022/10/21 04:27:10;;;;;;;;;;;;;;;2.82;100.00;101148.25;5538015;32;35084;-67
2022/10/21 04:30:18;;;;;;;;;;;;;;;2.81;100.00;101142.16;5551458;32;34789;-67
2022/10/21 04:33:24;;;;;;;;;;;;;;;2.81;100.00;101146.59;5551647;32;34842;-68
2022/10/21 04:36:30;;;;;;;;;;;;;;;2.75;100.00;101149.63;5537743;32;34198;-67
2022/10/21 04:39:36;;;;;;;;;;;;;;;2.72;100.00;101137.53;5551704;32;34788;-67
2022/10/21 04:42:47;;;;;;;;;;;;;;;2.77;100.00;101139.84;5551308;32;34560;-68
2022/10/21 04:45:52;;;;;;;;;;;;;;;2.73;100.00;101136.59;5551656;32;34356;-67
2022/10/21 04:48:59;;;;;;;;;;;;;;;2.68;100.00;101133.44;5538320;32;34309;-67
2022/10/21 04:52:04;;;;;;;;;;;;;;;2.63;100.00;101125.88;5551322;32;35387;-67
2022/10/21 04:55:12;;;;;;;;;;;;;;;2.63;100.00;101118.00;5551677;32;34729;-67
2022/10/21 04:58:19;;;;;;;;;;;;;;;2.60;100.00;101113.00;5551365;32;34330;-67
2022/10/21 05:01:28;;;;;;;;;;;;;;;2.65;100.00;101112.69;5551838;32;34872;-68
2022/10/21 05:04:38;;;;;;;;;;;;;;;2.81;100.00;101105.50;5551243;32;34674;-67
2022/10/21 05:07:45;;;;;;;;;;;;;;;2.88;100.00;101103.31;5551393;32;34308;-68
2022/10/21 05:10:56;;;;;;;;;;;;;;;2.94;100.00;101111.63;5537450;32;34818;-68
2022/10/21 05:14:05;;;;;;;;;;;;;;;2.99;100.00;101117.41;5550861;32;34519;-68
2022/10/21 05:17:11;;;;;;;;;;;;;;;3.21;100.00;101118.59;5525195;32;34255;-68
2022/10/21 05:20:20;;;;;;;;;;;;;;;3.35;100.00;101128.97;5551496;32;34246;-69
2022/10/21 05:23:26;;;;;;;;;;;;;;;3.57;100.00;101128.37;5537910;32;34840;-67
2022/10/21 05:26:32;;;;;;;;;;;;;;;3.41;100.00;101124.16;5537706;32;34209;-68
2022/10/21 05:29:38;;;;;;;;;;;;;;;3.32;100.00;101126.56;5549810;32;34837;-68
2022/10/21 05:32:46;;;;;;;;;;;;;;;3.41;100.00;101120.72;5550890;32;34294;-68
2022/10/21 05:35:54;;;;;;;;;;;;;;;3.48;100.00;101107.09;5550979;32;34597;-68
2022/10/21 05:39:00;;;;;;;;;;;;;;;3.43;100.00;101105.72;5550722;32;35025;-67
2022/10/21 05:42:04;;;;;;;;;;;;;;;3.41;100.00;101100.56;5537365;32;34216;-68
2022/10/21 05:45:10;;;;;;;;;;;;;;;3.37;100.00;101116.62;5536424;32;34593;-69
2022/10/21 05:48:15;;;;;;;;;;;;;;;3.51;100.00;101137.50;5552236;32;34205;-69
2022/10/21 05:51:25;;;;;;;;;;;;;;;3.54;100.00;101137.28;5551393;32;34407;-68
2022/10/21 05:54:29;;;;;;;;;;;;;;;3.59;100.00;101136.97;5537424;32;34924;-68
2022/10/21 05:57:34;;;;;;;;;;;;;;;3.71;100.00;101121.25;5550621;32;34670;-67
2022/10/21 06:00:39;;;;;;;;;;;;;;;3.77;100.00;101109.47;5536942;32;34524;-68
2022/10/21 06:03:44;;;;;;;;;;;;;;;3.80;100.00;101117.97;5536712;32;34351;-68
2022/10/21 06:06:47;;;;;;;;;;;;;;;3.90;100.00;101132.16;5536765;32;34158;-68
2022/10/21 06:09:53;;;;;;;;;;;;;;;4.08;100.00;101142.28;5536716;32;34404;-68
2022/10/21 06:12:57;;;;;;;;;;;;;;;4.20;100.00;101152.78;5550447;32;34203;-68
2022/10/21 06:16:03;;;;;;;;;;;;;;;4.33;100.00;101171.97;5550180;32;34144;-69
2022/10/21 06:19:12;;;;;;;;;;;;;;;4.45;100.00;101175.53;5550483;32;34212;-68
2022/10/21 06:22:16;;;;;;;;;;;;;;;4.49;100.00;101165.63;5523940;32;34280;-68
2022/10/21 06:25:20;;;;;;;;;;;;;;;4.67;100.00;101169.56;5550297;32;34653;-68
2022/10/21 06:28:25;;;;;;;;;;;;;;;4.72;100.00;101167.44;5536670;32;35834;-68
2022/10/21 06:31:28;;;;;;;;;;;;;;;4.82;100.00;101166.66;5550092;32;34793;-68
2022/10/21 06:34:32;;;;;;;;;;;;;;;4.88;100.00;101160.13;5550746;32;34920;-68
2022/10/21 06:37:34;;;;;;;;;;;;;;;4.88;100.00;101161.91;5550367;32;34618;-68
2022/10/21 06:40:41;;;;;;;;;;;;;;;4.97;100.00;101161.25;5549937;32;34202;-68
2022/10/21 06:43:46;;;;;;;;;;;;;;;4.94;100.00;101172.00;5549986;32;34582;-68
2022/10/21 06:46:52;;;;;;;;;;;;;;;5.00;100.00;101185.50;5535425;32;34991;-68
2022/10/21 06:50:01;;;;;;;;;;;;;;;4.96;100.00;101181.44;5536660;32;35025;-67
2022/10/21 06:53:06;;;;;;;;;;;;;;;4.96;100.00;101172.69;5550509;32;34277;-68
2022/10/21 06:56:15;;;;;;;;;;;;;;;5.08;100.00;101170.00;5536596;32;34250;-68
2022/10/21 06:59:20;;;;;;;;;;;;;;;5.03;100.00;101166.06;5549898;32;34793;-68
2022/10/21 07:02:25;;;;;;;;;;;;;;;5.24;100.00;101160.03;5549948;32;34374;-68
2022/10/21 07:05:29;;;;;;;;;;;;;;;5.26;100.00;101157.28;5549878;32;34743;-67
2022/10/21 07:08:32;;;;;;;;;;;;;;;5.27;100.00;101153.72;5549865;32;34364;-68
2022/10/21 07:11:56;;;;;;;;;;;;;;;5.42;100.00;101142.00;5549847;32;34297;-68
2022/10/21 07:14:59;;;;;;;;;;;;;;;5.54;100.00;101146.34;5550194;32;34250;-68
2022/10/21 07:18:04;;;;;;;;;;;;;;;5.68;100.00;101148.78;5549449;32;34534;-68
2022/10/21 07:21:12;;;;;;;;;;;;;;;5.87;100.00;101150.00;5536231;32;34394;-67
2022/10/21 07:24:16;;;;;;;;;;;;;;;6.00;100.00;101161.28;5535893;32;35150;-68
2022/10/21 07:27:26;;;;;;;;;;;;;;;6.57;100.00;101169.03;5549642;32;34242;-68
2022/10/21 07:30:31;;;;;;;;;;;;;;;6.94;100.00;101166.88;5535533;32;34160;-68
2022/10/21 07:33:34;;;;;;;;;;;;;;;7.04;100.00;101177.50;5535128;32;34699;-68
2022/10/21 07:36:40;;;;;;;;;;;;;;;7.04;100.00;101178.34;5549081;32;34948;-68
2022/10/21 07:39:45;;;;;;;;;;;;;;;7.52;94.66;101169.97;5549283;32;34686;-68
2022/10/21 07:42:50;;;;;;;;;;;;;;;9.05;87.23;101172.37;5534937;32;35083;-69
2022/10/21 07:45:55;;;;;;;;;;;;;;;10.98;79.04;101180.56;5535802;32;34920;-68
2022/10/21 07:48:58;;;;;;;;;;;;;;;12.62;67.96;101168.03;5549171;32;35056;-68
2022/10/21 07:52:01;;;;;;;;;;;;;;;13.77;63.38;101165.31;5536924;32;34308;-68
2022/10/21 07:55:05;;;;;;;;;;;;;;;14.08;60.31;101154.75;5538149;32;35216;-68
2022/10/21 07:58:09;;;;;;;;;;;;;;;14.33;59.45;101153.62;5551931;32;34211;-69
2022/10/21 08:01:15;;;;;;;;;;;;;;;15.52;56.55;101166.63;5525568;32;34876;-69
2022/10/21 08:04:21;;;;;;;;;;;;;;;16.32;52.65;101148.87;5551911;32;34866;-69
2022/10/21 08:07:24;;;;;;;;;;;;;;;15.79;52.24;101151.81;5552089;32;34829;-68
2022/10/21 08:10:28;;;;;;;;;;;;;;;13.92;57.36;101139.63;5551674;32;34282;-69
2022/10/21 08:13:33;;;;;;;;;;;;;;;14.02;55.62;101131.41;5551777;32;34302;-69
2022/10/21 08:16:40;;;;;;;;;;;;;;;13.41;57.18;101116.03;5537807;32;34899;-68
2022/10/21 08:19:47;;;;;;;;;;;;;;;12.43;61.13;101116.91;5551566;32;35127;-69
2022/10/21 08:22:53;;;;;;;;;;;;;;;11.63;65.17;101119.00;5537461;32;34351;-69
2022/10/21 08:25:59;;;;;;;;;;;;;;;11.43;66.84;101117.50;5551578;32;34394;-69
2022/10/21 08:29:02;;;;;;;;;;;;;;;11.22;68.16;101103.75;5551147;32;34328;-69
2022/10/21 08:32:08;;;;;;;;;;;;;;;10.50;69.87;101110.06;5551174;32;34870;-69
2022/10/21 08:35:12;;;;;;;;;;;;;;;10.12;72.01;101105.75;5551484;32;34930;-68
2022/10/21 08:38:16;;;;;;;;;;;;;;;10.11;72.53;101104.13;5551377;32;34830;-68
2022/10/21 08:41:29;;;;;;;;;;;;;;;9.75;74.38;101104.94;5551293;32;34154;-68
2022/10/21 08:44:48;;;;;;;;;;;;;;;10.02;74.67;101105.00;5551291;32;35059;-68
2022/10/21 08:47:55;;;;;;;;;;;;;;;9.79;73.78;101093.06;5551384;32;34646;-68
2022/10/21 08:51:00;;;;;;;;;;;;;;;9.85;75.27;101093.34;5537221;32;35430;-67
2022/10/21 08:54:06;;;;;;;;;;;;;;;9.99;74.87;101087.56;5551114;32;34620;-68
2022/10/21 08:57:10;;;;;;;;;;;;;;;10.26;74.26;101081.44;5537534;32;35141;-68
2022/10/21 09:00:22;;;;;;;;;;;;;;;11.00;70.64;101082.97;5551304;32;34154;-67
2022/10/21 09:03:27;;;;;;;;;;;;;;;11.32;67.66;101073.47;5537787;32;34186;-68
2022/10/21 09:06:53;;;;;;;;;;;;;;;11.94;65.50;101060.03;5537429;32;35076;-67
2022/10/21 09:09:57;;;;;;;;;;;;;;;12.23;66.41;101052.50;5551019;32;34912;-67
2022/10/21 09:13:06;;;;;;;;;;;;;;;12.90;62.62;101055.91;5550770;32;34183;-68
2022/10/21 09:16:18;;;;;;;;;;;;;;;13.36;61.30;101062.44;5550692;32;34262;-68
2022/10/21 09:19:21;;;;;;;;;;;;;;;13.29;59.23;101050.75;5550928;32;34880;-67
2022/10/21 09:22:24;;;;;;;;;;;;;;;12.70;58.75;101046.59;5524348;32;34461;-67
2022/10/21 09:25:53;;;;;;;;;;;;;;;12.97;59.65;101044.41;5550655;32;34916;-67
2022/10/21 09:28:56;;;;;;;;;;;;;;;12.77;58.64;101045.78;5550694;32;34775;-67
2022/10/21 09:32:18;;;;;;;;;;;;;;;12.62;58.18;101042.94;5550964;32;33994;-67
2022/10/21 09:35:33;;;;;;;;;;;;;;;13.21;56.98;101046.28;5550753;32;34292;-68
2022/10/21 09:38:55;;;;;;;;;;;;;;;13.47;56.11;101046.06;5537165;32;35437;-68
2022/10/21 09:41:59;;;;;;;;;;;;;;;13.37;55.32;101032.09;5551191;32;34604;-68
2022/10/21 09:45:19;;;;;;;;;;;;;;;12.55;57.43;101030.44;5525586;32;35658;-67
2022/10/21 09:48:41;;;;;;;;;;;;;;;12.53;58.50;101013.81;5550683;32;34885;-68
2022/10/21 09:52:05;;;;;;;;;;;;;;;13.18;56.35;101011.13;5551052;32;34468;-67
2022/10/21 09:55:12;;;;;;;;;;;;;;;12.93;56.89;101000.47;5536708;32;33066;-68
2022/10/21 09:58:26;;;;;;;;;;;;;;;12.47;58.50;101003.81;5551063;32;34238;-68
2022/10/21 10:01:30;;;;;;;;;;;;;;;12.43;57.98;101000.66;5550332;32;34659;-68
2022/10/21 10:04:34;;;;;;;;;;;;;;;12.67;57.69;100997.19;5550691;32;34895;-68
2022/10/21 10:07:37;;;;;;;;;;;;;;;12.39;59.46;100993.19;5550540;32;34871;-68
2022/10/21 10:10:42;;;;;;;;;;;;;;;12.49;58.69;100985.87;5550778;32;34603;-69
2022/10/21 10:13:48;;;;;;;;;;;;;;;12.70;58.34;100985.34;5550032;32;34475;-68
2022/10/21 10:16:55;;;;;;;;;;;;;;;13.08;56.82;100980.16;5537335;32;34511;-69
2022/10/21 10:20:04;;;;;;;;;;;;;;;13.40;55.16;100981.12;5550557;32;34934;-68
2022/10/21 10:23:16;;;;;;;;;;;;;;;13.29;54.89;100977.00;5536754;32;34207;-67
2022/10/21 10:26:33;;;;;;;;;;;;;;;13.28;54.45;100972.66;5536134;32;34843;-68
2022/10/21 10:29:37;;;;;;;;;;;;;;;13.05;55.38;100969.03;5535815;32;34566;-68
2022/10/21 10:32:40;;;;;;;;;;;;;;;13.29;54.01;100966.34;5536970;32;34593;-68
2022/10/21 10:35:48;;;;;;;;;;;;;;;13.52;54.26;100958.41;5550350;32;34805;-68
2022/10/21 10:38:52;;;;;;;;;;;;;;;13.23;53.95;100953.69;5550343;32;34339;-68
2022/10/21 10:41:56;;;;;;;;;;;;;;;13.04;55.34;100946.88;5536800;32;34655;-68
2022/10/21 10:45:11;;;;;;;;;;;;;;;14.10;54.64;100947.28;5550034;32;34191;-69
2022/10/21 10:48:38;;;;;;;;;;;;;;;14.58;51.49;100931.94;5550101;32;34170;-69
2022/10/21 10:51:44;;;;;;;;;;;;;;;14.34;51.10;100935.59;5541974;32;34359;-69
2022/10/21 10:54:48;;;;;;;;;;;;;;;14.71;50.17;100924.97;5549795;32;34306;-69
2022/10/21 10:57:54;;;;;;;;;;;;;;;14.79;50.11;100916.88;5536134;32;34639;-69
2022/10/21 11:01:19;;;;;;;;;;;;;;;14.29;49.96;100905.94;5525602;32;35116;-69
2022/10/21 11:04:34;;;;;;;;;;;;;;;15.42;47.72;100899.47;5550293;32;34769;-69
2022/10/21 11:07:46;;;;;;;;;;;;;;;15.56;47.45;100884.44;5550068;32;34919;-69
2022/10/21 11:10:52;;;;;;;;;;;;;;;15.62;47.59;100886.38;5549955;32;34358;-69
2022/10/21 11:13:56;;;;;;;;;;;;;;;14.68;49.13;100885.28;5549843;32;33683;-69
2022/10/21 11:17:12;;;;;;;;;;;;;;;14.53;51.77;100883.56;5549759;32;34992;-69
2022/10/21 11:20:29;;;;;;;;;;;;;;;14.48;50.40;100884.13;5549858;32;34885;-69
2022/10/21 11:23:46;;;;;;;;;;;;;;;14.14;49.53;100883.69;5523072;32;34878;-69
2022/10/21 11:27:03;;;;;;;;;;;;;;;13.66;52.11;100877.69;5550665;32;34264;-68
2022/10/21 11:30:20;;;;;;;;;;;;;;;13.97;51.87;100877.69;5552004;32;35191;-69
2022/10/21 11:33:43;;;;;;;;;;;;;;;14.15;51.11;100872.03;5551938;32;34333;-68
2022/10/21 11:36:56;;;;;;;;;;;;;;;14.16;51.42;100863.03;5551895;32;34349;-68
2022/10/21 11:40:12;;;;;;;;;;;;;;;14.11;51.56;100860.91;5551728;32;34337;-68
2022/10/21 11:43:19;;;;;;;;;;;;;;;13.91;53.28;100849.03;5551903;32;34558;-68
2022/10/21 11:46:52;;;;;;;;;;;;;;;13.87;52.73;100835.25;5552051;32;34252;-68
2022/10/21 11:50:02;;;;;;;;;;;;;;;13.91;53.00;100833.03;5530815;32;33528;-68
2022/10/21 11:53:18;;;;;;;;;;;;;;;13.56;53.01;100834.44;5551222;32;34999;-68
2022/10/21 11:56:27;;;;;;;;;;;;;;;13.78;52.73;100833.63;5551088;32;34818;-68
2022/10/21 11:59:50;;;;;;;;;;;;;;;13.88;51.41;100820.91;5524994;32;34346;-68
2022/10/21 12:03:01;;;;;;;;;;;;;;;13.95;51.35;100821.00;5551303;32;34300;-69
2022/10/21 12:06:16;;;;;;;;;;;;;;;13.86;51.88;100814.06;5537134;32;32662;-68
2022/10/21 12:09:25;;;;;;;;;;;;;;;13.88;50.96;100804.06;5536825;32;35039;-68
2022/10/21 12:12:38;;;;;;;;;;;;;;;13.87;50.55;100808.56;5524927;32;34226;-68
2022/10/21 12:15:46;;;;;;;;;;;;;;;13.50;49.68;100797.84;5536970;32;34121;-68
2022/10/21 12:18:55;;;;;;;;;;;;;;;13.35;50.97;100789.78;5512351;32;34209;-68
2022/10/21 12:22:01;;;;;;;;;;;;;;;13.29;50.57;100802.94;5512224;32;34347;-69
2022/10/21 12:25:11;;;;;;;;;;;;;;;13.67;50.51;100796.72;5512605;32;34651;-69
2022/10/21 12:28:22;;;;;;;;;;;;;;;13.70;51.05;100803.53;5511955;32;34328;-68
2022/10/21 12:31:36;;;;;;;;;;;;;;;13.69;49.05;100792.03;5512317;32;34661;-69
2022/10/21 12:34:41;;;;;;;;;;;;;;;13.67;50.12;100795.88;5512928;32;34481;-69
2022/10/21 12:37:49;;;;;;;;;;;;;;;13.36;50.76;100790.59;5512590;32;34941;-69
2022/10/21 12:41:12;;;;;;;;;;;;;;;13.21;51.85;100785.19;5511801;32;35223;-68
2022/10/21 12:44:23;;;;;;;;;;;;;;;13.46;50.25;100776.03;5512800;32;35000;-68
2022/10/21 12:47:35;;;;;;;;;;;;;;;13.57;50.79;100782.78;5511960;32;34312;-69
2022/10/21 12:50:43;;;;;;;;;;;;;;;13.56;51.16;100785.63;5512951;32;34379;-69
2022/10/21 12:53:51;;;;;;;;;;;;;;;13.29;52.47;100779.81;5512809;32;34935;-67
2022/10/21 12:56:59;;;;;;;;;;;;;;;13.20;52.40;100770.19;5512877;32;34935;-69
2022/10/21 13:00:13;;;;;;;;;;;;;;;13.25;52.60;100783.84;5512518;32;34223;-69
2022/10/21 13:03:20;;;;;;;;;;;;;;;12.92;54.66;100769.81;5512619;32;34881;-69
2022/10/21 13:06:57;;;;;;;;;;;;;;;12.66;53.34;100758.59;5511136;32;34364;-69
2022/10/21 13:10:08;;;;;;;;;;;;;;;12.75;53.04;100765.53;5503864;32;34270;-68
2022/10/21 13:13:27;;;;;;;;;;;;;;;12.87;53.29;100758.84;5512767;32;34283;-69
2022/10/21 13:16:36;;;;;;;;;;;;;;;13.06;53.31;100755.78;5521119;32;34181;-69
2022/10/21 13:19:41;;;;;;;;;;;;;;;13.14;52.60;100754.91;5537814;32;34943;-68
2022/10/21 13:22:49;;;;;;;;;;;;;;;13.16;52.96;100752.91;5551146;32;34902;-69
2022/10/21 13:26:05;;;;;;;;;;;;;;;12.99;53.34;100746.81;5551011;32;34999;-69
2022/10/21 13:29:10;;;;;;;;;;;;;;;13.05;53.28;100738.13;5537765;32;34872;-68
2022/10/21 13:32:21;;;;;;;;;;;;;;;12.90;54.53;100728.37;5551108;32;34401;-69
2022/10/21 13:35:28;;;;;;;;;;;;;;;13.09;54.63;100733.25;5537104;32;34618;-68
2022/10/21 13:38:32;;;;;;;;;;;;;;;12.90;54.70;100741.69;5551071;32;35023;-68
2022/10/21 13:41:37;;;;;;;;;;;;;;;12.89;54.59;100732.88;5551035;32;34406;-68
2022/10/21 13:44:49;;;;;;;;;;;;;;;12.92;54.74;100727.22;5550781;32;34210;-68
2022/10/21 13:48:13;;;;;;;;;;;;;;;12.86;55.22;100727.91;5536868;32;36327;-68
2022/10/21 13:51:22;;;;;;;;;;;;;;;12.83;55.32;100724.75;5550132;32;34903;-68
2022/10/21 13:54:33;;;;;;;;;;;;;;;12.90;55.18;100718.56;5536617;32;34972;-68
2022/10/21 13:57:37;;;;;;;;;;;;;;;13.10;54.58;100721.59;5550753;32;33693;-67
2022/10/21 14:00:41;;;;;;;;;;;;;;;13.17;54.92;100716.44;5537266;32;34185;-68
2022/10/21 14:03:50;;;;;;;;;;;;;;;13.15;53.95;100715.78;5536471;32;34296;-68
2022/10/21 14:07:05;;;;;;;;;;;;;;;13.07;54.42;100714.78;5550528;32;34654;-68
2022/10/21 14:10:13;;;;;;;;;;;;;;;13.07;55.86;100701.47;5536301;32;34627;-68
2022/10/21 14:13:22;;;;;;;;;;;;;;;13.12;54.56;100705.50;5536294;32;34785;-68
2022/10/21 14:16:33;;;;;;;;;;;;;;;12.77;54.72;100712.13;5536385;32;35179;-68
2022/10/21 14:19:37;;;;;;;;;;;;;;;12.86;55.16;100695.13;5550457;32;34274;-68
2022/10/21 14:22:48;;;;;;;;;;;;;;;12.77;55.31;100697.00;5536575;32;35638;-68
2022/10/21 14:26:04;;;;;;;;;;;;;;;12.85;56.49;100694.28;5550552;32;34717;-69
2022/10/21 14:29:11;;;;;;;;;;;;;;;12.99;55.59;100693.53;5524114;32;35078;-68
2022/10/21 14:32:15;;;;;;;;;;;;;;;12.92;55.20;100684.59;5536056;32;35281;-68
2022/10/21 14:35:25;;;;;;;;;;;;;;;12.95;55.97;100692.22;5550330;32;34249;-68
2022/10/21 14:38:36;;;;;;;;;;;;;;;12.79;56.36;100680.84;5536516;32;34270;-68
2022/10/21 14:41:44;;;;;;;;;;;;;;;12.73;55.76;100685.00;5536515;32;34831;-69
2022/10/21 14:44:51;;;;;;;;;;;;;;;12.77;56.16;100677.53;5536415;32;37256;-68
2022/10/21 14:48:08;;;;;;;;;;;;;;;12.60;56.26;100685.59;5550208;32;34796;-68
2022/10/21 14:51:14;;;;;;;;;;;;;;;12.58;56.08;100676.12;5550230;32;34243;-69
2022/10/21 14:54:27;;;;;;;;;;;;;;;12.36;56.76;100674.22;5536184;32;34721;-68
2022/10/21 14:57:42;;;;;;;;;;;;;;;12.43;57.94;100680.50;5550111;32;34698;-68
2022/10/21 15:00:56;;;;;;;;;;;;;;;12.37;57.63;100683.84;5549577;32;34107;-68
2022/10/21 15:04:01;;;;;;;;;;;;;;;12.20;58.67;100667.09;5550036;32;34910;-68
2022/10/21 15:07:23;;;;;;;;;;;;;;;12.12;58.43;100672.47;5523643;32;35469;-68
2022/10/21 15:10:29;;;;;;;;;;;;;;;11.99;59.33;100674.84;5536034;32;34307;-67
2022/10/21 15:13:38;;;;;;;;;;;;;;;11.89;59.94;100672.34;5549365;32;34382;-67
2022/10/21 15:16:49;;;;;;;;;;;;;;;11.85;60.02;100665.72;5535260;32;34844;-68
2022/10/21 15:19:55;;;;;;;;;;;;;;;11.79;61.34;100655.75;5549692;32;34276;-69
2022/10/21 15:23:01;;;;;;;;;;;;;;;11.81;60.12;100642.31;5549562;32;34863;-68
2022/10/21 15:26:10;;;;;;;;;;;;;;;11.64;61.80;100649.44;5535451;32;34364;-68
2022/10/21 15:29:19;;;;;;;;;;;;;;;11.58;61.23;100639.47;5549359;32;34813;-68
2022/10/21 15:32:25;;;;;;;;;;;;;;;11.52;62.41;100635.66;5535627;32;34572;-69
2022/10/21 15:35:34;;;;;;;;;;;;;;;11.46;62.50;100636.34;5535489;32;34540;-69
2022/10/21 15:38:46;;;;;;;;;;;;;;;11.45;62.95;100652.44;5536251;32;34600;-68
2022/10/21 15:41:56;;;;;;;;;;;;;;;11.45;63.66;100641.81;5549318;32;34179;-68
2022/10/21 15:45:02;;;;;;;;;;;;;;;11.35;64.11;100647.28;5548910;32;34496;-68
2022/10/21 15:48:08;;;;;;;;;;;;;;;11.38;64.55;100646.94;5548398;32;34946;-68
2022/10/21 15:51:14;;;;;;;;;;;;;;;11.28;64.21;100646.28;5549238;32;35027;-69
2022/10/21 15:54:19;;;;;;;;;;;;;;;11.20;64.70;100652.44;5535112;32;33016;-69
2022/10/21 15:57:23;;;;;;;;;;;;;;;11.18;64.95;100638.47;5549048;32;34311;-68
2022/10/21 16:00:27;;;;;;;;;;;;;;;11.13;65.24;100640.00;5548891;32;34582;-68
2022/10/21 16:03:33;;;;;;;;;;;;;;;11.15;65.22;100646.78;5535093;32;35436;-68
2022/10/21 16:06:46;;;;;;;;;;;;;;;11.12;65.18;100633.00;5548845;32;34913;-68
2022/10/21 16:09:51;;;;;;;;;;;;;;;11.04;65.88;100638.28;5534978;32;33514;-68
2022/10/21 16:12:56;;;;;;;;;;;;;;;10.99;66.24;100649.41;5536234;32;34100;-67